Terminal Aerodrome Forecast
Issued by NWS

Home | Current Version | Previous Version | Text Only | Print | Product List | Glossary Off
Versions: 1 2 3 4 5 6 7 8 9 10 11 12 13 14 15 16 17 18 19 20

000
FTUS43 KUNR 271404 AAA
TAFGCC
TAF AMD
KGCC 271404Z 2714/2812 34010KT P6SM OVC012
      TEMPO 2714/2718 5SM -SHRASN OVC005
     FM271800 33010KT P6SM BKN025
     FM272300 35008KT P6SM SCT100=

USA.gov is the U.S. government's official web portal to all federal, state and local government web resources and services.